Time;durP1;ratioP1;P1;durP2;ratioP2;P2;SDS_P1;SDS_P2;PMS_P1;PMS_P2;Temp;Humidity;BMP_temperature;BMP_pressure;BME280_temperature;BME280_humidity;BME280_pressure;Samples;Min_cycle;Max_cycle;Signal;HPM_P1;HPM_P2
2022/06/19 00:00:09;;;;;;;9.07;4.63;;;24.70;78.00;;;;;;5011404;28;20034;-89
2022/06/19 00:02:36;;;;;;;13.57;4.18;;;24.70;78.30;;;;;;5009698;28;20372;-89
2022/06/19 00:05:02;;;;;;;8.88;3.70;;;24.60;78.40;;;;;;5012326;28;20042;-88
2022/06/19 00:07:27;;;;;;;9.77;3.85;;;24.60;78.60;;;;;;5011084;28;20037;-89
2022/06/19 00:09:53;;;;;;;14.30;3.55;;;24.60;78.80;;;;;;5010109;28;20044;-88
2022/06/19 00:12:19;;;;;;;11.38;4.03;;;24.60;78.90;;;;;;5010861;28;20121;-88
2022/06/19 00:14:45;;;;;;;8.80;3.45;;;24.50;79.10;;;;;;5018474;28;20041;-89
2022/06/19 00:17:11;;;;;;;9.15;3.05;;;24.50;79.10;;;;;;5018004;28;20093;-87
2022/06/19 00:19:36;;;;;;;8.60;3.42;;;24.50;79.40;;;;;;5026918;28;20025;-89
2022/06/19 00:22:03;;;;;;;9.35;3.25;;;24.40;79.40;;;;;;5013633;28;20033;-89
2022/06/19 00:24:29;;;;;;;16.15;3.70;;;24.40;79.50;;;;;;5011245;28;20048;-86
2022/06/19 00:26:55;;;;;;;7.75;2.58;;;24.30;79.60;;;;;;5010986;28;20088;-88
2022/06/19 00:29:21;;;;;;;7.70;3.33;;;24.30;79.80;;;;;;5010299;28;20034;-86
2022/06/19 00:31:47;;;;;;;11.23;3.50;;;24.30;79.80;;;;;;5012344;28;20038;-88
2022/06/19 00:34:12;;;;;;;9.70;3.47;;;24.30;80.10;;;;;;5012147;28;20475;-85
2022/06/19 00:36:38;;;;;;;14.15;2.88;;;24.30;80.20;;;;;;5009398;28;20026;-89
2022/06/19 00:39:03;;;;;;;12.32;2.72;;;24.30;80.80;;;;;;5013654;28;20045;-88
2022/06/19 00:41:44;;;;;;;9.50;3.05;;;24.30;80.40;;;;;;5013318;28;20026;-89
2022/06/19 00:44:12;;;;;;;10.38;2.40;;;24.20;80.50;;;;;;5011658;28;20030;-88
2022/06/19 00:46:52;;;;;;;7.32;2.80;;;24.20;80.70;;;;;;5009982;28;20037;-89
2022/06/19 00:49:37;;;;;;;12.32;3.33;;;24.20;80.80;;;;;;5010146;28;20581;-88
2022/06/19 00:52:08;;;;;;;8.68;2.55;;;24.20;81.00;;;;;;5005070;28;20398;-88
2022/06/19 00:54:42;;;;;;;11.05;3.28;;;24.10;81.40;;;;;;5007863;28;20033;-88
2022/06/19 00:57:08;;;;;;;6.97;2.58;;;24.10;81.60;;;;;;5009234;28;20076;-89
2022/06/19 00:59:37;;;;;;;6.20;2.63;;;24.10;81.90;;;;;;5008259;28;20045;-89
2022/06/19 01:02:03;;;;;;;12.27;2.90;;;24.00;81.80;;;;;;5009317;28;20034;-88
2022/06/19 01:04:41;;;;;;;8.95;2.63;;;24.00;82.10;;;;;;5010217;28;20125;-88
2022/06/19 01:07:07;;;;;;;9.55;2.47;;;24.00;82.30;;;;;;5010300;28;20421;-89
2022/06/19 01:09:32;;;;;;;8.48;2.25;;;24.00;81.40;;;;;;5008372;28;20108;-89
2022/06/19 01:12:01;;;;;;;14.88;3.13;;;23.90;80.60;;;;;;5010621;28;20116;-88
2022/06/19 01:14:27;;;;;;;12.15;2.60;;;24.00;80.40;;;;;;5010245;28;20026;-88
2022/06/19 01:16:53;;;;;;;12.93;2.70;;;23.90;79.60;;;;;;5025433;28;20796;-88
2022/06/19 01:19:24;;;;;;;9.15;2.50;;;24.00;78.90;;;;;;5008728;28;20092;-88
2022/06/19 01:22:10;;;;;;;6.80;2.30;;;24.00;79.00;;;;;;5009100;28;20467;-88
2022/06/19 01:24:59;;;;;;;7.03;2.15;;;24.00;78.40;;;;;;5009410;28;20497;-88
2022/06/19 01:30:12;;;;;;;13.02;2.95;;;24.20;78.00;;;;;;5009816;28;20517;-89
2022/06/19 01:32:38;;;;;;;7.72;1.90;;;24.10;77.80;;;;;;5009034;28;20029;-89
2022/06/19 01:35:07;;;;;;;7.22;2.65;;;24.20;78.60;;;;;;5009566;28;20499;-90
2022/06/19 01:37:35;;;;;;;7.47;2.15;;;24.20;77.90;;;;;;5015150;28;20038;-89
2022/06/19 01:40:17;;;;;;;7.47;2.08;;;24.20;77.80;;;;;;5008016;28;20026;-88
2022/06/19 01:42:43;;;;;;;10.30;2.55;;;24.20;78.00;;;;;;5018563;28;20029;-88
2022/06/19 01:45:10;;;;;;;10.00;2.75;;;24.20;78.10;;;;;;5008929;28;20045;-88
2022/06/19 01:47:36;;;;;;;8.18;2.78;;;24.10;78.30;;;;;;5009172;28;20034;-89
2022/06/19 01:50:05;;;;;;;9.43;2.38;;;24.10;79.30;;;;;;5008048;28;20029;-87
2022/06/19 01:52:31;;;;;;;12.50;2.90;;;24.10;79.40;;;;;;5009164;28;20475;-90
2022/06/19 01:55:15;;;;;;;13.95;2.35;;;24.00;79.90;;;;;;5013394;28;20037;-89
2022/06/19 01:57:44;;;;;;;6.25;2.13;;;24.00;79.90;;;;;;5010818;28;20096;-89
2022/06/19 02:00:14;;;;;;;10.25;2.78;;;23.90;79.40;;;;;;5013311;28;20045;-89
2022/06/19 02:02:44;;;;;;;12.98;2.90;;;23.90;79.90;;;;;;5030630;28;20406;-88
2022/06/19 02:05:09;;;;;;;11.65;2.63;;;23.80;79.80;;;;;;5011361;28;20123;-89
2022/06/19 02:07:35;;;;;;;9.65;2.67;;;23.80;79.50;;;;;;5013440;28;20073;-89
2022/06/19 02:10:01;;;;;;;6.32;2.25;;;23.70;78.70;;;;;;5015593;28;20117;-89
2022/06/19 02:12:29;;;;;;;7.20;2.58;;;23.70;78.30;;;;;;5013139;28;20029;-90
2022/06/19 02:14:55;;;;;;;10.63;2.90;;;23.70;77.90;;;;;;5019994;28;20030;-89
2022/06/19 02:17:40;;;;;;;10.05;2.42;;;23.70;78.00;;;;;;5013645;28;20459;-90
2022/06/19 02:20:06;;;;;;;6.38;2.20;;;23.70;77.70;;;;;;5015950;28;20034;-89
2022/06/19 02:22:32;;;;;;;12.00;2.80;;;23.70;77.80;;;;;;5013517;28;20053;-89
2022/06/19 02:24:58;;;;;;;9.57;2.70;;;23.70;77.30;;;;;;5011853;28;20038;-89
2022/06/19 02:27:25;;;;;;;13.75;2.75;;;23.70;77.10;;;;;;5014246;28;20053;-90
2022/06/19 02:29:51;;;;;;;14.93;2.90;;;23.70;77.30;;;;;;5018624;28;20029;-90
2022/06/19 02:32:27;;;;;;;11.13;2.53;;;23.70;77.00;;;;;;5016762;28;20037;-90
2022/06/19 02:34:53;;;;;;;17.05;2.38;;;23.70;76.90;;;;;;5014123;28;20033;-90
2022/06/19 02:37:26;;;;;;;10.35;2.50;;;23.70;76.50;;;;;;5020071;28;20026;-88
2022/06/19 02:40:06;;;;;;;12.30;2.63;;;23.70;76.00;;;;;;5026090;28;20034;-90
2022/06/19 02:42:47;;;;;;;6.80;2.85;;;23.70;75.90;;;;;;5027230;28;20117;-90
2022/06/19 02:45:16;;;;;;;12.20;2.38;;;23.70;75.90;;;;;;5025947;28;20068;-89
2022/06/19 02:47:42;;;;;;;8.20;3.03;;;23.70;75.40;;;;;;5014356;28;20029;-86
2022/06/19 02:50:12;;;;;;;14.25;2.92;;;23.70;75.30;;;;;;5026471;28;20030;-87
2022/06/19 02:52:37;;;;;;;10.05;2.45;;;23.70;75.30;;;;;;5023277;28;20034;-89
2022/06/19 02:55:04;;;;;;;12.05;2.28;;;23.70;75.10;;;;;;5011583;28;20141;-90
2022/06/19 02:57:29;;;;;;;10.02;3.03;;;23.80;75.10;;;;;;5012899;28;20037;-87
2022/06/19 02:59:55;;;;;;;15.13;2.97;;;23.80;74.80;;;;;;5013090;28;20041;-89
2022/06/19 03:02:21;;;;;;;8.40;2.30;;;23.80;74.60;;;;;;5017254;28;20530;-88
2022/06/19 03:05:01;;;;;;;9.75;2.40;;;23.80;74.50;;;;;;5014310;28;20030;-88
2022/06/19 03:07:27;;;;;;;9.95;2.03;;;23.80;74.30;;;;;;5015656;28;20037;-88
2022/06/19 03:09:53;;;;;;;10.75;2.20;;;23.90;74.30;;;;;;5012276;28;20025;-88
2022/06/19 03:12:20;;;;;;;12.88;3.10;;;23.90;74.10;;;;;;5019142;28;20037;-89
2022/06/19 03:14:45;;;;;;;10.57;2.50;;;23.90;74.40;;;;;;5014527;28;20030;-88
2022/06/19 03:17:20;;;;;;;10.00;1.85;;;24.00;74.20;;;;;;5016104;28;20161;-89
2022/06/19 03:19:46;;;;;;;11.27;1.70;;;23.90;74.10;;;;;;5021656;28;20034;-89
2022/06/19 03:22:12;;;;;;;8.02;1.85;;;24.00;74.30;;;;;;5050770;28;20030;-88
2022/06/19 03:24:38;;;;;;;8.07;1.90;;;24.00;74.70;;;;;;5021117;28;20498;-89
2022/06/19 03:27:04;;;;;;;8.02;2.33;;;24.00;74.40;;;;;;5014596;28;20450;-88
2022/06/19 03:29:30;;;;;;;7.15;2.10;;;24.00;74.30;;;;;;5011207;28;20049;-88
2022/06/19 03:31:56;;;;;;;8.40;1.70;;;24.00;74.30;;;;;;5010157;28;20026;-88
2022/06/19 03:34:21;;;;;;;5.47;1.98;;;24.10;74.30;;;;;;5011556;28;20037;-88
2022/06/19 03:36:47;;;;;;;12.45;2.45;;;24.10;74.40;;;;;;5011102;28;20471;-88
2022/06/19 03:39:12;;;;;;;8.55;2.03;;;24.10;74.30;;;;;;5009918;28;20033;-88
2022/06/19 03:41:39;;;;;;;10.73;2.58;;;24.10;74.70;;;;;;5012158;28;20034;-88
2022/06/19 03:44:05;;;;;;;6.50;2.10;;;24.10;74.30;;;;;;5012266;28;20033;-90
2022/06/19 03:46:31;;;;;;;6.60;1.98;;;24.20;73.90;;;;;;5012934;28;20120;-89
2022/06/19 03:48:57;;;;;;;15.85;2.65;;;24.20;73.80;;;;;;5011577;28;20104;-88
2022/06/19 03:51:23;;;;;;;8.40;2.15;;;24.20;74.20;;;;;;5009727;28;20541;-88
2022/06/19 03:53:53;;;;;;;6.30;2.00;;;24.20;74.10;;;;;;5011542;28;20125;-87
